sensor_id;sensor_type;location;lat;lon;timestamp;temperature;humidity
15343;DHT22;7771;48.478;8.936;2022-08-21T00:01:16;17.40;99.90
15343;DHT22;7771;48.478;8.936;2022-08-21T00:03:42;17.30;99.90
15343;DHT22;7771;48.478;8.936;2022-08-21T00:06:09;17.30;99.90
15343;DHT22;7771;48.478;8.936;2022-08-21T00:08:36;17.30;99.90
15343;DHT22;7771;48.478;8.936;2022-08-21T00:11:04;17.20;99.90
15343;DHT22;7771;48.478;8.936;2022-08-21T00:13:31;17.20;99.90
15343;DHT22;7771;48.478;8.936;2022-08-21T00:15:59;17.20;99.90
15343;DHT22;7771;48.478;8.936;2022-08-21T00:18:26;17.20;99.90
15343;DHT22;7771;48.478;8.936;2022-08-21T00:20:53;17.10;99.90
15343;DHT22;7771;48.478;8.936;2022-08-21T00:23:21;17.10;99.90
15343;DHT22;7771;48.478;8.936;2022-08-21T00:25:48;17.00;99.90
15343;DHT22;7771;48.478;8.936;2022-08-21T00:28:16;17.00;99.90
15343;DHT22;7771;48.478;8.936;2022-08-21T00:30:43;16.90;99.90
15343;DHT22;7771;48.478;8.936;2022-08-21T00:33:09;16.80;99.90
15343;DHT22;7771;48.478;8.936;2022-08-21T00:35:37;16.80;99.90
15343;DHT22;7771;48.478;8.936;2022-08-21T00:38:05;16.80;99.90
15343;DHT22;7771;48.478;8.936;2022-08-21T00:40:48;16.70;99.90
15343;DHT22;7771;48.478;8.936;2022-08-21T00:43:18;16.70;99.90
15343;DHT22;7771;48.478;8.936;2022-08-21T00:45:41;16.60;99.90
15343;DHT22;7771;48.478;8.936;2022-08-21T00:48:08;16.60;99.90
15343;DHT22;7771;48.478;8.936;2022-08-21T00:50:35;16.40;99.90
15343;DHT22;7771;48.478;8.936;2022-08-21T00:53:02;16.50;99.90
15343;DHT22;7771;48.478;8.936;2022-08-21T00:55:28;16.40;99.90
15343;DHT22;7771;48.478;8.936;2022-08-21T00:57:56;16.40;99.90
15343;DHT22;7771;48.478;8.936;2022-08-21T01:00:25;16.40;99.90
15343;DHT22;7771;48.478;8.936;2022-08-21T01:02:50;16.50;99.90
15343;DHT22;7771;48.478;8.936;2022-08-21T01:05:17;16.40;99.90
15343;DHT22;7771;48.478;8.936;2022-08-21T01:07:44;16.50;99.90
15343;DHT22;7771;48.478;8.936;2022-08-21T01:10:11;16.50;99.90
15343;DHT22;7771;48.478;8.936;2022-08-21T01:12:38;16.50;99.90
15343;DHT22;7771;48.478;8.936;2022-08-21T01:15:05;16.50;99.90
15343;DHT22;7771;48.478;8.936;2022-08-21T01:17:33;16.50;99.90
15343;DHT22;7771;48.478;8.936;2022-08-21T01:20:00;16.40;99.90
15343;DHT22;7771;48.478;8.936;2022-08-21T01:22:26;16.50;99.90
15343;DHT22;7771;48.478;8.936;2022-08-21T01:24:54;16.40;99.90
15343;DHT22;7771;48.478;8.936;2022-08-21T01:27:21;16.40;99.90
15343;DHT22;7771;48.478;8.936;2022-08-21T01:29:54;16.40;99.90
15343;DHT22;7771;48.478;8.936;2022-08-21T01:32:18;16.30;99.90
15343;DHT22;7771;48.478;8.936;2022-08-21T01:34:45;16.30;99.90
15343;DHT22;7771;48.478;8.936;2022-08-21T01:37:11;16.40;99.90
15343;DHT22;7771;48.478;8.936;2022-08-21T01:39:39;16.30;99.90
15343;DHT22;7771;48.478;8.936;2022-08-21T01:42:06;16.30;99.90
15343;DHT22;7771;48.478;8.936;2022-08-21T01:44:32;16.30;99.90
15343;DHT22;7771;48.478;8.936;2022-08-21T01:47:02;16.30;99.90
15343;DHT22;7771;48.478;8.936;2022-08-21T01:49:26;16.30;99.90
15343;DHT22;7771;48.478;8.936;2022-08-21T01:51:53;16.30;99.90
15343;DHT22;7771;48.478;8.936;2022-08-21T01:54:19;16.20;99.90
15343;DHT22;7771;48.478;8.936;2022-08-21T01:56:47;16.30;99.90
15343;DHT22;7771;48.478;8.936;2022-08-21T01:59:13;16.20;99.90
15343;DHT22;7771;48.478;8.936;2022-08-21T02:01:41;16.10;99.90
15343;DHT22;7771;48.478;8.936;2022-08-21T02:04:09;16.10;99.90
15343;DHT22;7771;48.478;8.936;2022-08-21T02:06:36;16.10;99.90
15343;DHT22;7771;48.478;8.936;2022-08-21T02:09:04;16.00;99.90
15343;DHT22;7771;48.478;8.936;2022-08-21T02:11:31;15.90;99.90
15343;DHT22;7771;48.478;8.936;2022-08-21T02:13:58;15.90;99.90
15343;DHT22;7771;48.478;8.936;2022-08-21T02:16:25;15.90;99.90
15343;DHT22;7771;48.478;8.936;2022-08-21T02:18:52;15.80;99.90
15343;DHT22;7771;48.478;8.936;2022-08-21T02:21:20;15.80;99.90
15343;DHT22;7771;48.478;8.936;2022-08-21T02:23:47;15.90;99.90
15343;DHT22;7771;48.478;8.936;2022-08-21T02:26:14;15.80;99.90
15343;DHT22;7771;48.478;8.936;2022-08-21T02:28:42;15.80;99.90
15343;DHT22;7771;48.478;8.936;2022-08-21T02:31:09;15.70;99.90
15343;DHT22;7771;48.478;8.936;2022-08-21T02:33:37;15.60;99.90
15343;DHT22;7771;48.478;8.936;2022-08-21T02:36:04;15.70;99.90
15343;DHT22;7771;48.478;8.936;2022-08-21T02:38:31;15.70;99.90
15343;DHT22;7771;48.478;8.936;2022-08-21T02:40:58;15.60;99.90
15343;DHT22;7771;48.478;8.936;2022-08-21T02:43:27;15.60;99.90
15343;DHT22;7771;48.478;8.936;2022-08-21T02:45:54;15.60;99.90
15343;DHT22;7771;48.478;8.936;2022-08-21T02:48:21;15.60;99.90
15343;DHT22;7771;48.478;8.936;2022-08-21T02:50:48;15.60;99.90
15343;DHT22;7771;48.478;8.936;2022-08-21T02:53:14;15.70;99.90
15343;DHT22;7771;48.478;8.936;2022-08-21T02:55:41;15.60;99.90
15343;DHT22;7771;48.478;8.936;2022-08-21T02:58:07;15.60;99.90
15343;DHT22;7771;48.478;8.936;2022-08-21T03:00:35;15.50;99.90
15343;DHT22;7771;48.478;8.936;2022-08-21T03:03:01;15.50;99.90
15343;DHT22;7771;48.478;8.936;2022-08-21T03:05:28;15.50;99.90
15343;DHT22;7771;48.478;8.936;2022-08-21T03:07:54;15.50;99.90
15343;DHT22;7771;48.478;8.936;2022-08-21T03:10:22;15.50;99.90
15343;DHT22;7771;48.478;8.936;2022-08-21T03:12:49;15.40;99.90
15343;DHT22;7771;48.478;8.936;2022-08-21T03:15:16;15.40;99.90
15343;DHT22;7771;48.478;8.936;2022-08-21T03:17:42;15.30;99.90
15343;DHT22;7771;48.478;8.936;2022-08-21T03:20:10;15.30;99.90
15343;DHT22;7771;48.478;8.936;2022-08-21T03:22:36;15.20;99.90
15343;DHT22;7771;48.478;8.936;2022-08-21T03:25:02;15.20;99.90
15343;DHT22;7771;48.478;8.936;2022-08-21T03:27:30;15.20;99.90
15343;DHT22;7771;48.478;8.936;2022-08-21T03:29:57;15.20;99.90
15343;DHT22;7771;48.478;8.936;2022-08-21T03:32:25;15.10;99.90
15343;DHT22;7771;48.478;8.936;2022-08-21T03:34:52;15.20;99.90
15343;DHT22;7771;48.478;8.936;2022-08-21T03:37:19;15.10;99.90
15343;DHT22;7771;48.478;8.936;2022-08-21T03:39:46;15.10;99.90
15343;DHT22;7771;48.478;8.936;2022-08-21T03:42:13;15.10;99.90
15343;DHT22;7771;48.478;8.936;2022-08-21T03:44:40;15.10;99.90
15343;DHT22;7771;48.478;8.936;2022-08-21T03:47:07;15.00;99.90
15343;DHT22;7771;48.478;8.936;2022-08-21T03:49:35;15.00;99.90
15343;DHT22;7771;48.478;8.936;2022-08-21T03:52:02;15.00;99.90
15343;DHT22;7771;48.478;8.936;2022-08-21T03:54:30;15.00;99.90
15343;DHT22;7771;48.478;8.936;2022-08-21T03:56:57;15.00;99.90
15343;DHT22;7771;48.478;8.936;2022-08-21T03:59:24;15.00;99.90
15343;DHT22;7771;48.478;8.936;2022-08-21T04:01:56;15.00;99.90
15343;DHT22;7771;48.478;8.936;2022-08-21T04:04:21;14.90;99.90
15343;DHT22;7771;48.478;8.936;2022-08-21T04:06:48;14.80;99.90
15343;DHT22;7771;48.478;8.936;2022-08-21T04:09:15;14.80;99.90
15343;DHT22;7771;48.478;8.936;2022-08-21T04:11:41;14.80;99.90
15343;DHT22;7771;48.478;8.936;2022-08-21T04:14:08;14.80;99.90
15343;DHT22;7771;48.478;8.936;2022-08-21T04:16:35;14.80;99.90
15343;DHT22;7771;48.478;8.936;2022-08-21T04:19:01;14.70;99.90
15343;DHT22;7771;48.478;8.936;2022-08-21T04:21:28;14.80;99.90
15343;DHT22;7771;48.478;8.936;2022-08-21T04:23:54;14.70;99.90
15343;DHT22;7771;48.478;8.936;2022-08-21T04:26:21;14.70;99.90
15343;DHT22;7771;48.478;8.936;2022-08-21T04:28:48;14.70;99.90
15343;DHT22;7771;48.478;8.936;2022-08-21T04:31:16;14.70;99.90
15343;DHT22;7771;48.478;8.936;2022-08-21T04:33:43;14.70;99.90
15343;DHT22;7771;48.478;8.936;2022-08-21T04:36:10;14.70;99.90
15343;DHT22;7771;48.478;8.936;2022-08-21T04:38:38;14.60;99.90
15343;DHT22;7771;48.478;8.936;2022-08-21T04:41:05;14.60;99.90
15343;DHT22;7771;48.478;8.936;2022-08-21T04:43:32;14.60;99.90
15343;DHT22;7771;48.478;8.936;2022-08-21T04:45:59;14.60;99.90
15343;DHT22;7771;48.478;8.936;2022-08-21T04:48:26;14.60;99.90
15343;DHT22;7771;48.478;8.936;2022-08-21T04:51:10;14.70;99.90
15343;DHT22;7771;48.478;8.936;2022-08-21T04:53:38;14.70;99.90
15343;DHT22;7771;48.478;8.936;2022-08-21T04:56:06;14.70;99.90
15343;DHT22;7771;48.478;8.936;2022-08-21T04:58:31;14.70;99.90
15343;DHT22;7771;48.478;8.936;2022-08-21T05:00:59;14.70;99.90
15343;DHT22;7771;48.478;8.936;2022-08-21T05:03:26;14.70;99.90
15343;DHT22;7771;48.478;8.936;2022-08-21T05:05:54;14.70;99.90
15343;DHT22;7771;48.478;8.936;2022-08-21T05:08:21;14.70;99.90
15343;DHT22;7771;48.478;8.936;2022-08-21T05:10:48;14.70;99.90
15343;DHT22;7771;48.478;8.936;2022-08-21T05:13:16;14.70;99.90
15343;DHT22;7771;48.478;8.936;2022-08-21T05:15:44;14.70;99.90
15343;DHT22;7771;48.478;8.936;2022-08-21T05:18:12;14.70;99.90
15343;DHT22;7771;48.478;8.936;2022-08-21T05:20:38;14.70;99.90
15343;DHT22;7771;48.478;8.936;2022-08-21T05:23:08;14.80;99.90
15343;DHT22;7771;48.478;8.936;2022-08-21T05:25:33;14.80;99.90
15343;DHT22;7771;48.478;8.936;2022-08-21T05:27:59;14.80;99.90
15343;DHT22;7771;48.478;8.936;2022-08-21T05:30:26;14.80;99.90
15343;DHT22;7771;48.478;8.936;2022-08-21T05:32:58;14.90;99.90
15343;DHT22;7771;48.478;8.936;2022-08-21T05:35:25;14.80;99.90
15343;DHT22;7771;48.478;8.936;2022-08-21T05:37:51;14.90;99.90
15343;DHT22;7771;48.478;8.936;2022-08-21T05:40:18;14.90;99.90
15343;DHT22;7771;48.478;8.936;2022-08-21T05:42:44;14.90;99.90
15343;DHT22;7771;48.478;8.936;2022-08-21T05:45:11;14.90;99.90
15343;DHT22;7771;48.478;8.936;2022-08-21T05:47:38;15.00;99.90
15343;DHT22;7771;48.478;8.936;2022-08-21T05:50:05;15.00;99.90
15343;DHT22;7771;48.478;8.936;2022-08-21T05:52:32;15.10;99.90
15343;DHT22;7771;48.478;8.936;2022-08-21T05:54:58;15.10;99.90
15343;DHT22;7771;48.478;8.936;2022-08-21T05:57:25;15.20;99.90
15343;DHT22;7771;48.478;8.936;2022-08-21T05:59:51;15.20;99.90
15343;DHT22;7771;48.478;8.936;2022-08-21T06:02:19;15.30;99.90
15343;DHT22;7771;48.478;8.936;2022-08-21T06:04:45;15.40;99.90
15343;DHT22;7771;48.478;8.936;2022-08-21T06:07:12;15.40;99.90
15343;DHT22;7771;48.478;8.936;2022-08-21T06:09:40;15.50;99.90
15343;DHT22;7771;48.478;8.936;2022-08-21T06:12:07;15.60;99.90
15343;DHT22;7771;48.478;8.936;2022-08-21T06:14:34;15.60;99.90
15343;DHT22;7771;48.478;8.936;2022-08-21T06:17:02;15.70;99.90
15343;DHT22;7771;48.478;8.936;2022-08-21T06:19:29;15.70;99.90
15343;DHT22;7771;48.478;8.936;2022-08-21T06:21:55;15.80;99.90
15343;DHT22;7771;48.478;8.936;2022-08-21T06:24:22;15.80;99.90
15343;DHT22;7771;48.478;8.936;2022-08-21T06:26:48;15.90;99.90
15343;DHT22;7771;48.478;8.936;2022-08-21T06:29:15;16.00;99.90
15343;DHT22;7771;48.478;8.936;2022-08-21T06:31:42;16.00;99.90
15343;DHT22;7771;48.478;8.936;2022-08-21T06:34:09;16.10;99.90
15343;DHT22;7771;48.478;8.936;2022-08-21T06:36:35;16.20;99.90
15343;DHT22;7771;48.478;8.936;2022-08-21T06:39:02;16.30;99.90
15343;DHT22;7771;48.478;8.936;2022-08-21T06:41:28;16.40;99.90
15343;DHT22;7771;48.478;8.936;2022-08-21T06:43:55;16.50;99.90
15343;DHT22;7771;48.478;8.936;2022-08-21T06:46:22;16.50;99.90
15343;DHT22;7771;48.478;8.936;2022-08-21T06:48:48;16.70;99.90
15343;DHT22;7771;48.478;8.936;2022-08-21T06:51:15;16.80;99.90
15343;DHT22;7771;48.478;8.936;2022-08-21T06:53:41;16.90;99.90
15343;DHT22;7771;48.478;8.936;2022-08-21T06:56:09;17.00;99.90
15343;DHT22;7771;48.478;8.936;2022-08-21T06:58:36;17.10;99.90
15343;DHT22;7771;48.478;8.936;2022-08-21T07:01:03;17.20;99.90
15343;DHT22;7771;48.478;8.936;2022-08-21T07:03:32;17.40;99.90
15343;DHT22;7771;48.478;8.936;2022-08-21T07:05:58;17.50;99.90
15343;DHT22;7771;48.478;8.936;2022-08-21T07:08:26;17.70;99.90
15343;DHT22;7771;48.478;8.936;2022-08-21T07:10:54;17.80;99.90
15343;DHT22;7771;48.478;8.936;2022-08-21T07:13:20;18.00;99.90
15343;DHT22;7771;48.478;8.936;2022-08-21T07:15:47;18.20;99.90
15343;DHT22;7771;48.478;8.936;2022-08-21T07:18:14;18.90;99.90
15343;DHT22;7771;48.478;8.936;2022-08-21T07:20:42;20.10;99.90
15343;DHT22;7771;48.478;8.936;2022-08-21T07:23:11;21.40;99.90
15343;DHT22;7771;48.478;8.936;2022-08-21T07:25:37;21.40;99.90
15343;DHT22;7771;48.478;8.936;2022-08-21T07:28:03;22.80;99.90
15343;DHT22;7771;48.478;8.936;2022-08-21T07:30:30;24.10;99.90
15343;DHT22;7771;48.478;8.936;2022-08-21T07:32:56;25.50;99.90
15343;DHT22;7771;48.478;8.936;2022-08-21T07:35:23;27.60;99.90
15343;DHT22;7771;48.478;8.936;2022-08-21T07:37:50;28.60;98.80
15343;DHT22;7771;48.478;8.936;2022-08-21T07:40:18;29.40;96.50
15343;DHT22;7771;48.478;8.936;2022-08-21T07:42:45;29.40;96.50
15343;DHT22;7771;48.478;8.936;2022-08-21T07:45:11;30.10;95.20
15343;DHT22;7771;48.478;8.936;2022-08-21T07:47:38;30.80;93.50
15343;DHT22;7771;48.478;8.936;2022-08-21T07:50:05;32.00;90.40
15343;DHT22;7771;48.478;8.936;2022-08-21T07:52:31;32.00;90.50
15343;DHT22;7771;48.478;8.936;2022-08-21T07:54:59;33.20;84.60
15343;DHT22;7771;48.478;8.936;2022-08-21T07:57:26;33.50;81.90
15343;DHT22;7771;48.478;8.936;2022-08-21T07:59:53;33.50;80.60
15343;DHT22;7771;48.478;8.936;2022-08-21T08:02:23;33.10;77.70
15343;DHT22;7771;48.478;8.936;2022-08-21T08:04:49;32.30;76.90
15343;DHT22;7771;48.478;8.936;2022-08-21T08:07:16;31.50;77.60
15343;DHT22;7771;48.478;8.936;2022-08-21T08:09:44;30.70;79.50
15343;DHT22;7771;48.478;8.936;2022-08-21T08:12:10;30.70;80.20
15343;DHT22;7771;48.478;8.936;2022-08-21T08:14:37;29.50;81.50
15343;DHT22;7771;48.478;8.936;2022-08-21T08:17:03;28.90;83.50
15343;DHT22;7771;48.478;8.936;2022-08-21T08:19:30;28.50;84.60
15343;DHT22;7771;48.478;8.936;2022-08-21T08:21:56;28.20;85.40
15343;DHT22;7771;48.478;8.936;2022-08-21T08:24:23;27.90;85.80
15343;DHT22;7771;48.478;8.936;2022-08-21T08:26:50;27.60;85.60
15343;DHT22;7771;48.478;8.936;2022-08-21T08:29:17;27.40;87.20
15343;DHT22;7771;48.478;8.936;2022-08-21T08:31:44;27.30;87.90
15343;DHT22;7771;48.478;8.936;2022-08-21T08:34:12;27.20;88.50
15343;DHT22;7771;48.478;8.936;2022-08-21T08:36:39;27.10;88.50
15343;DHT22;7771;48.478;8.936;2022-08-21T08:39:06;27.10;88.80
15343;DHT22;7771;48.478;8.936;2022-08-21T08:41:34;27.00;88.40
15343;DHT22;7771;48.478;8.936;2022-08-21T08:44:02;27.00;88.40
15343;DHT22;7771;48.478;8.936;2022-08-21T08:46:35;27.00;88.20
15343;DHT22;7771;48.478;8.936;2022-08-21T08:49:03;27.00;88.20
15343;DHT22;7771;48.478;8.936;2022-08-21T08:51:37;27.00;88.20
15343;DHT22;7771;48.478;8.936;2022-08-21T08:54:01;27.10;88.10
15343;DHT22;7771;48.478;8.936;2022-08-21T08:56:28;27.10;87.80
15343;DHT22;7771;48.478;8.936;2022-08-21T08:58:55;27.30;87.50
15343;DHT22;7771;48.478;8.936;2022-08-21T09:01:21;27.40;87.00
15343;DHT22;7771;48.478;8.936;2022-08-21T09:03:48;27.50;85.20
15343;DHT22;7771;48.478;8.936;2022-08-21T09:06:24;27.60;84.60
15343;DHT22;7771;48.478;8.936;2022-08-21T09:08:53;27.70;84.40
15343;DHT22;7771;48.478;8.936;2022-08-21T09:11:29;27.70;84.50
15343;DHT22;7771;48.478;8.936;2022-08-21T09:14:39;27.80;84.30
15343;DHT22;7771;48.478;8.936;2022-08-21T09:16:48;27.90;84.10
15343;DHT22;7771;48.478;8.936;2022-08-21T09:22:07;28.10;83.80
15343;DHT22;7771;48.478;8.936;2022-08-21T09:27:17;28.20;82.50
15343;DHT22;7771;48.478;8.936;2022-08-21T09:29:43;28.30;82.60
15343;DHT22;7771;48.478;8.936;2022-08-21T09:32:14;28.30;82.40
15343;DHT22;7771;48.478;8.936;2022-08-21T09:34:37;28.40;80.70
15343;DHT22;7771;48.478;8.936;2022-08-21T09:37:04;28.30;79.80
15343;DHT22;7771;48.478;8.936;2022-08-21T09:39:38;28.30;78.80
15343;DHT22;7771;48.478;8.936;2022-08-21T09:42:04;28.30;78.30
15343;DHT22;7771;48.478;8.936;2022-08-21T09:44:32;28.40;75.60
15343;DHT22;7771;48.478;8.936;2022-08-21T09:46:57;28.40;76.10
15343;DHT22;7771;48.478;8.936;2022-08-21T09:49:31;28.40;76.10
15343;DHT22;7771;48.478;8.936;2022-08-21T09:51:56;28.40;75.30
15343;DHT22;7771;48.478;8.936;2022-08-21T09:54:26;28.40;72.20
15343;DHT22;7771;48.478;8.936;2022-08-21T09:56:53;28.50;72.50
15343;DHT22;7771;48.478;8.936;2022-08-21T09:59:26;28.50;72.60
15343;DHT22;7771;48.478;8.936;2022-08-21T10:01:52;28.50;71.50
15343;DHT22;7771;48.478;8.936;2022-08-21T10:04:31;28.40;72.10
15343;DHT22;7771;48.478;8.936;2022-08-21T10:07:13;28.40;73.20
15343;DHT22;7771;48.478;8.936;2022-08-21T10:09:41;28.50;71.80
15343;DHT22;7771;48.478;8.936;2022-08-21T10:12:10;28.50;71.40
15343;DHT22;7771;48.478;8.936;2022-08-21T10:14:42;28.40;72.80
15343;DHT22;7771;48.478;8.936;2022-08-21T10:22:34;28.40;73.20
15343;DHT22;7771;48.478;8.936;2022-08-21T10:25:09;28.50;72.00
15343;DHT22;7771;48.478;8.936;2022-08-21T10:27:57;28.50;71.30
15343;DHT22;7771;48.478;8.936;2022-08-21T10:30:30;28.60;71.00
15343;DHT22;7771;48.478;8.936;2022-08-21T10:33:06;28.60;71.50
15343;DHT22;7771;48.478;8.936;2022-08-21T10:35:33;28.70;71.70
15343;DHT22;7771;48.478;8.936;2022-08-21T10:41:04;28.70;70.90
15343;DHT22;7771;48.478;8.936;2022-08-21T10:43:36;28.80;66.60
15343;DHT22;7771;48.478;8.936;2022-08-21T10:46:25;28.70;67.20
15343;DHT22;7771;48.478;8.936;2022-08-21T10:48:47;28.70;67.10
15343;DHT22;7771;48.478;8.936;2022-08-21T10:51:19;28.70;68.00
15343;DHT22;7771;48.478;8.936;2022-08-21T10:53:47;28.80;68.00
15343;DHT22;7771;48.478;8.936;2022-08-21T10:56:16;28.80;67.50
15343;DHT22;7771;48.478;8.936;2022-08-21T11:01:25;28.80;69.00
15343;DHT22;7771;48.478;8.936;2022-08-21T11:03:52;28.90;67.20
15343;DHT22;7771;48.478;8.936;2022-08-21T11:06:25;28.90;67.50
15343;DHT22;7771;48.478;8.936;2022-08-21T11:08:59;28.90;68.00
15343;DHT22;7771;48.478;8.936;2022-08-21T11:11:30;28.90;68.10
15343;DHT22;7771;48.478;8.936;2022-08-21T11:14:34;29.00;68.00
15343;DHT22;7771;48.478;8.936;2022-08-21T11:16:41;29.00;68.00
15343;DHT22;7771;48.478;8.936;2022-08-21T11:19:15;29.10;67.70
15343;DHT22;7771;48.478;8.936;2022-08-21T11:21:47;29.10;67.70
15343;DHT22;7771;48.478;8.936;2022-08-21T11:24:21;29.10;67.20
15343;DHT22;7771;48.478;8.936;2022-08-21T11:26:51;29.10;68.00
15343;DHT22;7771;48.478;8.936;2022-08-21T11:29:20;29.30;66.80
15343;DHT22;7771;48.478;8.936;2022-08-21T11:31:51;29.30;67.30
15343;DHT22;7771;48.478;8.936;2022-08-21T11:34:25;29.30;65.80
15343;DHT22;7771;48.478;8.936;2022-08-21T11:36:53;29.40;65.60
15343;DHT22;7771;48.478;8.936;2022-08-21T11:39:22;29.50;65.00
15343;DHT22;7771;48.478;8.936;2022-08-21T11:41:48;29.60;63.90
15343;DHT22;7771;48.478;8.936;2022-08-21T11:44:23;29.60;62.80
15343;DHT22;7771;48.478;8.936;2022-08-21T11:46:49;29.60;63.70
15343;DHT22;7771;48.478;8.936;2022-08-21T11:49:30;29.60;63.30
15343;DHT22;7771;48.478;8.936;2022-08-21T11:52:02;29.50;62.90
15343;DHT22;7771;48.478;8.936;2022-08-21T11:54:35;29.50;62.80
15343;DHT22;7771;48.478;8.936;2022-08-21T11:57:05;29.60;62.30
15343;DHT22;7771;48.478;8.936;2022-08-21T11:59:36;29.70;62.80
15343;DHT22;7771;48.478;8.936;2022-08-21T12:02:02;29.60;62.30
15343;DHT22;7771;48.478;8.936;2022-08-21T12:04:29;29.70;62.50
15343;DHT22;7771;48.478;8.936;2022-08-21T12:06:55;29.70;62.00
15343;DHT22;7771;48.478;8.936;2022-08-21T12:09:29;29.70;61.40
15343;DHT22;7771;48.478;8.936;2022-08-21T12:12:06;29.70;60.10
15343;DHT22;7771;48.478;8.936;2022-08-21T12:14:43;29.70;60.60
15343;DHT22;7771;48.478;8.936;2022-08-21T12:17:09;29.70;59.90
15343;DHT22;7771;48.478;8.936;2022-08-21T12:19:35;29.70;59.90
15343;DHT22;7771;48.478;8.936;2022-08-21T12:22:12;29.70;60.50
15343;DHT22;7771;48.478;8.936;2022-08-21T12:24:43;29.60;61.90
15343;DHT22;7771;48.478;8.936;2022-08-21T12:27:20;29.70;59.60
15343;DHT22;7771;48.478;8.936;2022-08-21T12:29:48;29.60;59.90
15343;DHT22;7771;48.478;8.936;2022-08-21T12:32:26;29.60;59.60
15343;DHT22;7771;48.478;8.936;2022-08-21T12:34:52;29.70;60.30
15343;DHT22;7771;48.478;8.936;2022-08-21T12:37:22;29.80;59.00
15343;DHT22;7771;48.478;8.936;2022-08-21T12:39:46;29.80;58.50
15343;DHT22;7771;48.478;8.936;2022-08-21T12:42:18;29.80;60.60
15343;DHT22;7771;48.478;8.936;2022-08-21T12:44:46;29.70;60.90
15343;DHT22;7771;48.478;8.936;2022-08-21T12:47:14;29.70;60.80
15343;DHT22;7771;48.478;8.936;2022-08-21T12:49:44;29.80;61.40
15343;DHT22;7771;48.478;8.936;2022-08-21T12:52:16;29.90;62.00
15343;DHT22;7771;48.478;8.936;2022-08-21T12:54:39;29.90;62.60
15343;DHT22;7771;48.478;8.936;2022-08-21T12:57:05;30.00;59.80
15343;DHT22;7771;48.478;8.936;2022-08-21T12:59:31;30.00;59.20
15343;DHT22;7771;48.478;8.936;2022-08-21T13:01:58;30.00;59.70
15343;DHT22;7771;48.478;8.936;2022-08-21T13:04:30;30.00;59.70
15343;DHT22;7771;48.478;8.936;2022-08-21T13:06:52;30.10;60.70
15343;DHT22;7771;48.478;8.936;2022-08-21T13:09:21;30.10;60.00
15343;DHT22;7771;48.478;8.936;2022-08-21T13:11:47;30.20;59.90
15343;DHT22;7771;48.478;8.936;2022-08-21T13:16:46;30.30;58.70
15343;DHT22;7771;48.478;8.936;2022-08-21T13:19:16;30.20;59.10
15343;DHT22;7771;48.478;8.936;2022-08-21T13:21:41;30.10;58.80
15343;DHT22;7771;48.478;8.936;2022-08-21T13:24:23;30.10;59.70
15343;DHT22;7771;48.478;8.936;2022-08-21T13:26:48;30.10;59.20
15343;DHT22;7771;48.478;8.936;2022-08-21T13:29:15;30.00;58.20
15343;DHT22;7771;48.478;8.936;2022-08-21T13:31:42;30.10;57.40
15343;DHT22;7771;48.478;8.936;2022-08-21T13:34:08;30.10;57.70
15343;DHT22;7771;48.478;8.936;2022-08-21T13:36:35;30.10;57.70
15343;DHT22;7771;48.478;8.936;2022-08-21T13:39:02;30.10;58.10
15343;DHT22;7771;48.478;8.936;2022-08-21T13:41:29;30.20;59.10
15343;DHT22;7771;48.478;8.936;2022-08-21T13:43:58;30.20;58.50
15343;DHT22;7771;48.478;8.936;2022-08-21T13:46:24;30.20;57.90
15343;DHT22;7771;48.478;8.936;2022-08-21T13:48:50;30.20;58.00
15343;DHT22;7771;48.478;8.936;2022-08-21T13:51:17;30.20;57.10
15343;DHT22;7771;48.478;8.936;2022-08-21T13:53:46;30.20;58.50
15343;DHT22;7771;48.478;8.936;2022-08-21T13:56:23;30.20;59.30
15343;DHT22;7771;48.478;8.936;2022-08-21T13:58:49;30.20;59.30
15343;DHT22;7771;48.478;8.936;2022-08-21T14:01:22;30.30;58.40
15343;DHT22;7771;48.478;8.936;2022-08-21T14:03:46;30.20;57.90
15343;DHT22;7771;48.478;8.936;2022-08-21T14:06:17;30.20;58.50
15343;DHT22;7771;48.478;8.936;2022-08-21T14:08:47;30.20;57.90
15343;DHT22;7771;48.478;8.936;2022-08-21T14:11:11;30.30;58.10
15343;DHT22;7771;48.478;8.936;2022-08-21T14:13:42;30.30;57.30
15343;DHT22;7771;48.478;8.936;2022-08-21T14:16:14;30.40;55.10
15343;DHT22;7771;48.478;8.936;2022-08-21T14:18:45;30.40;55.20
15343;DHT22;7771;48.478;8.936;2022-08-21T14:21:10;30.40;55.60
15343;DHT22;7771;48.478;8.936;2022-08-21T14:23:37;30.40;54.50
15343;DHT22;7771;48.478;8.936;2022-08-21T14:26:04;30.40;53.50
15343;DHT22;7771;48.478;8.936;2022-08-21T14:28:34;30.40;52.40
15343;DHT22;7771;48.478;8.936;2022-08-21T14:31:17;30.30;51.20
15343;DHT22;7771;48.478;8.936;2022-08-21T14:33:41;30.30;51.80
15343;DHT22;7771;48.478;8.936;2022-08-21T14:36:07;30.30;51.80
15343;DHT22;7771;48.478;8.936;2022-08-21T14:38:35;30.20;52.50
15343;DHT22;7771;48.478;8.936;2022-08-21T14:41:08;30.20;53.30
15343;DHT22;7771;48.478;8.936;2022-08-21T14:43:31;30.10;52.50
15343;DHT22;7771;48.478;8.936;2022-08-21T14:45:58;30.10;53.00
15343;DHT22;7771;48.478;8.936;2022-08-21T14:48:25;30.00;54.00
15343;DHT22;7771;48.478;8.936;2022-08-21T14:50:53;30.00;54.80
15343;DHT22;7771;48.478;8.936;2022-08-21T14:53:20;30.00;55.00
15343;DHT22;7771;48.478;8.936;2022-08-21T14:55:47;30.00;54.90
15343;DHT22;7771;48.478;8.936;2022-08-21T14:58:20;30.00;54.90
15343;DHT22;7771;48.478;8.936;2022-08-21T15:00:46;29.90;54.80
15343;DHT22;7771;48.478;8.936;2022-08-21T15:03:14;29.80;54.90
15343;DHT22;7771;48.478;8.936;2022-08-21T15:05:41;29.80;54.90
15343;DHT22;7771;48.478;8.936;2022-08-21T15:08:09;29.80;55.10
15343;DHT22;7771;48.478;8.936;2022-08-21T15:10:36;29.80;54.90
15343;DHT22;7771;48.478;8.936;2022-08-21T15:13:03;29.70;54.70
15343;DHT22;7771;48.478;8.936;2022-08-21T15:15:32;29.70;54.70
15343;DHT22;7771;48.478;8.936;2022-08-21T15:17:58;29.60;54.80
15343;DHT22;7771;48.478;8.936;2022-08-21T15:20:25;29.50;54.70
15343;DHT22;7771;48.478;8.936;2022-08-21T15:22:51;29.50;55.20
15343;DHT22;7771;48.478;8.936;2022-08-21T15:25:18;29.50;54.70
15343;DHT22;7771;48.478;8.936;2022-08-21T15:27:45;29.40;55.40
15343;DHT22;7771;48.478;8.936;2022-08-21T15:30:11;29.40;56.10
15343;DHT22;7771;48.478;8.936;2022-08-21T15:32:38;29.40;56.60
15343;DHT22;7771;48.478;8.936;2022-08-21T15:35:05;29.30;56.20
15343;DHT22;7771;48.478;8.936;2022-08-21T15:37:31;29.20;56.40
15343;DHT22;7771;48.478;8.936;2022-08-21T15:39:59;29.10;57.60
15343;DHT22;7771;48.478;8.936;2022-08-21T15:42:27;29.30;57.50
15343;DHT22;7771;48.478;8.936;2022-08-21T15:44:54;29.30;58.00
15343;DHT22;7771;48.478;8.936;2022-08-21T15:47:22;30.30;57.30
15343;DHT22;7771;48.478;8.936;2022-08-21T15:49:49;30.70;56.40
15343;DHT22;7771;48.478;8.936;2022-08-21T15:52:17;30.80;55.60
15343;DHT22;7771;48.478;8.936;2022-08-21T15:54:43;30.70;55.20
15343;DHT22;7771;48.478;8.936;2022-08-21T15:57:13;30.50;56.10
15343;DHT22;7771;48.478;8.936;2022-08-21T15:59:41;30.20;55.80
15343;DHT22;7771;48.478;8.936;2022-08-21T16:02:08;29.80;56.00
15343;DHT22;7771;48.478;8.936;2022-08-21T16:04:33;29.70;55.80
15343;DHT22;7771;48.478;8.936;2022-08-21T16:06:59;29.50;54.80
15343;DHT22;7771;48.478;8.936;2022-08-21T16:09:27;29.20;55.20